Mc Intosh, New Mexico
Current Conditions -  °F | °C
As of 4:35 PM on Saturday 25 Oct 2014 (Local Time) from K0E0 Reporting Station
Clear Clear  
Wind Chill: 78°   Ceiling: Unl
Heat Index: 78°   Visibility: 10mi
Dew Point: 27°   Wind: 15mph
Humidity: 15%   Direction: 270°W
Pressure: 30.25"   Gusts: NA
Location:  34.864°N, 106.052°W
Report Text: K0E0 252235Z AUTO 27013KT 10SM CLR 26/M03 A3025 RMK AO2 T02551030
Loading
Personal Weather Stations






























Interactive Weather Map
Tropical Storm Tracking
New forecast layout! Learn more

10-Day Weather Forecast

Advertisements
Track Severe Weather on mobile